createdAt,value
2024-01-24T00:02:26.138Z,8.64
2024-01-24T00:04:53.307Z,8.58
2024-01-24T00:07:20.257Z,8.54
2024-01-24T00:09:47.251Z,8.61
2024-01-24T00:12:14.417Z,8.79
2024-01-24T00:14:41.371Z,8.84
2024-01-24T00:17:08.320Z,8.84
2024-01-24T00:19:35.473Z,8.34
2024-01-24T00:22:02.454Z,8.35
2024-01-24T00:24:29.504Z,8.57
2024-01-24T00:26:56.563Z,8.54
2024-01-24T00:29:23.497Z,8.53
2024-01-24T00:31:50.471Z,8.49
2024-01-24T00:34:17.830Z,8.27
2024-01-24T00:36:44.874Z,8.10
2024-01-24T00:39:12.166Z,8.17
2024-01-24T00:41:43.186Z,8.46
2024-01-24T00:44:10.426Z,8.39
2024-01-24T00:46:37.275Z,8.55
2024-01-24T00:49:04.822Z,8.47
2024-01-24T00:51:31.771Z,8.52
2024-01-24T00:53:59.112Z,8.65
2024-01-24T00:56:26.032Z,8.62
2024-01-24T00:58:53.034Z,8.19
2024-01-24T01:01:21.114Z,7.90
2024-01-24T01:03:48.460Z,8.16
2024-01-24T01:06:16.108Z,8.33
2024-01-24T01:08:43.449Z,8.40
2024-01-24T01:11:10.495Z,8.56
2024-01-24T01:13:37.439Z,8.09
2024-01-24T01:16:04.930Z,7.83
2024-01-24T01:18:31.922Z,7.97
2024-01-24T01:20:58.841Z,7.95
2024-01-24T01:23:25.809Z,8.19
2024-01-24T01:25:53.726Z,8.18
2024-01-24T01:28:20.653Z,8.37
2024-01-24T01:30:47.661Z,8.21
2024-01-24T01:33:14.833Z,8.37
2024-01-24T01:35:41.812Z,8.56
2024-01-24T01:38:08.788Z,8.61
2024-01-24T01:40:35.646Z,8.61
2024-01-24T01:43:02.589Z,8.09
2024-01-24T01:45:29.605Z,8.24
2024-01-24T01:47:58.694Z,8.21
2024-01-24T01:50:26.972Z,8.05
2024-01-24T01:52:54.023Z,8.21
2024-01-24T01:55:21.138Z,7.93
2024-01-24T01:57:49.054Z,7.92
2024-01-24T02:00:22.714Z,8.24
2024-01-24T02:02:50.093Z,7.92
2024-01-24T02:05:18.036Z,8.10
2024-01-24T02:07:45.696Z,8.01
2024-01-24T02:10:16.304Z,8.19
2024-01-24T02:12:43.344Z,8.16
2024-01-24T02:15:11.321Z,7.81
2024-01-24T02:17:38.435Z,7.85
2024-01-24T02:20:09.359Z,8.14
2024-01-24T02:22:36.244Z,7.81
2024-01-24T02:25:03.940Z,7.88
2024-01-24T02:27:30.971Z,7.62
2024-01-24T02:29:59.125Z,7.68
2024-01-24T02:32:26.144Z,7.86
2024-01-24T02:34:53.161Z,7.91
2024-01-24T02:37:22.056Z,7.76
2024-01-24T02:39:49.223Z,8.08
2024-01-24T02:42:16.799Z,7.51
2024-01-24T02:44:44.047Z,7.85
2024-01-24T02:47:11.074Z,7.56
2024-01-24T02:49:38.156Z,7.42
2024-01-24T02:52:05.577Z,7.58
2024-01-24T02:54:32.517Z,7.67
2024-01-24T02:56:59.517Z,7.51
2024-01-24T02:59:27.106Z,7.96
2024-01-24T03:01:54.177Z,7.85
2024-01-24T03:04:21.408Z,7.45
2024-01-24T03:06:48.542Z,7.31
2024-01-24T03:09:15.669Z,7.24
2024-01-24T03:11:43.029Z,7.09
2024-01-24T03:14:10.818Z,7.08
2024-01-24T03:16:37.687Z,7.37
2024-01-24T03:19:06.964Z,7.64
2024-01-24T03:21:34.188Z,7.34
2024-01-24T03:24:01.546Z,7.07
2024-01-24T03:26:28.519Z,7.08
2024-01-24T03:28:55.477Z,7.07
2024-01-24T03:31:22.373Z,7.04
2024-01-24T03:33:49.721Z,6.93
2024-01-24T03:36:16.963Z,7.52
2024-01-24T03:38:44.917Z,7.43
2024-01-24T03:41:11.921Z,7.32
2024-01-24T03:43:41.997Z,7.45
2024-01-24T03:46:08.996Z,7.28
2024-01-24T03:48:36.208Z,7.09
2024-01-24T03:51:03.571Z,6.98
2024-01-24T03:53:30.447Z,6.81
2024-01-24T03:55:57.382Z,7.00
2024-01-24T03:58:24.313Z,6.84
2024-01-24T04:00:54.213Z,6.83
2024-01-24T04:03:21.092Z,6.87
2024-01-24T04:05:48.141Z,6.98
2024-01-24T04:08:15.375Z,7.14
2024-01-24T04:10:42.374Z,7.14
2024-01-24T04:13:09.364Z,7.21
2024-01-24T04:15:36.351Z,7.11
2024-01-24T04:18:03.411Z,6.97
2024-01-24T04:20:30.415Z,6.69
2024-01-24T04:22:57.313Z,6.72
2024-01-24T04:25:24.244Z,6.51
2024-01-24T04:27:51.495Z,6.30
2024-01-24T04:30:18.674Z,6.51
2024-01-24T04:32:45.884Z,6.65
2024-01-24T04:35:13.293Z,6.52
2024-01-24T04:37:40.163Z,6.59
2024-01-24T04:40:08.127Z,6.55
2024-01-24T04:42:35.355Z,6.91
2024-01-24T04:45:02.224Z,6.87
2024-01-24T04:47:29.366Z,6.81
2024-01-24T04:49:56.460Z,6.20
2024-01-24T04:52:23.446Z,6.42
2024-01-24T04:54:50.415Z,6.62
2024-01-24T04:57:17.421Z,6.56
2024-01-24T04:59:50.214Z,6.56
2024-01-24T05:02:23.041Z,6.81
2024-01-24T05:04:50.183Z,6.73
2024-01-24T05:07:17.257Z,6.53
2024-01-24T05:09:44.735Z,6.46
2024-01-24T05:12:12.064Z,6.28
2024-01-24T05:14:38.981Z,6.31
2024-01-24T05:17:05.972Z,6.65
2024-01-24T05:19:34.295Z,6.76
2024-01-24T05:22:01.474Z,6.57
2024-01-24T05:24:28.474Z,6.61
2024-01-24T05:26:55.617Z,6.30
2024-01-24T05:29:22.522Z,6.13
2024-01-24T05:31:49.466Z,6.08
2024-01-24T05:34:16.584Z,6.69
2024-01-24T05:36:43.603Z,6.22
2024-01-24T05:39:10.602Z,6.31
2024-01-24T05:41:37.506Z,6.12
2024-01-24T05:44:04.752Z,5.84
2024-01-24T05:46:32.343Z,5.77
2024-01-24T05:49:02.392Z,6.08
2024-01-24T05:51:30.108Z,6.31
2024-01-24T05:53:57.253Z,6.14
2024-01-24T05:56:24.875Z,5.99
2024-01-24T05:58:51.862Z,6.11
2024-01-24T06:01:19.055Z,5.97
2024-01-24T06:03:46.452Z,6.18
2024-01-24T06:06:13.960Z,6.08
2024-01-24T06:08:41.411Z,6.00
2024-01-24T06:11:08.402Z,6.10
2024-01-24T06:13:35.967Z,6.38
2024-01-24T06:16:03.234Z,6.62
2024-01-24T06:18:30.246Z,6.45
2024-01-24T06:20:57.299Z,6.41
2024-01-24T06:23:24.342Z,6.02
2024-01-24T06:25:51.293Z,5.89
2024-01-24T06:28:18.308Z,5.83
2024-01-24T06:30:45.577Z,5.97
2024-01-24T06:33:14.528Z,5.98
2024-01-24T06:35:41.639Z,6.00
2024-01-24T06:38:08.572Z,5.81
2024-01-24T06:40:35.575Z,5.73
2024-01-24T06:43:02.635Z,5.88
2024-01-24T06:45:29.918Z,5.75
2024-01-24T06:47:56.906Z,5.85
2024-01-24T06:50:25.494Z,5.71
2024-01-24T06:52:52.504Z,5.55
2024-01-24T06:55:19.589Z,5.86
2024-01-24T06:57:46.812Z,5.69
2024-01-24T07:00:14.220Z,5.46
2024-01-24T07:02:41.186Z,5.54
2024-01-24T07:05:08.575Z,5.69
2024-01-24T07:07:37.588Z,6.17
2024-01-24T07:10:04.928Z,6.18
2024-01-24T07:12:31.848Z,6.36
2024-01-24T07:14:58.813Z,6.34
2024-01-24T07:17:25.976Z,6.27
2024-01-24T07:19:53.084Z,6.21
2024-01-24T07:22:20.135Z,6.12
2024-01-24T07:24:47.153Z,6.12
2024-01-24T07:27:14.135Z,6.05
2024-01-24T07:29:41.066Z,6.06
2024-01-24T07:32:07.983Z,6.05
2024-01-24T07:34:35.024Z,6.27
2024-01-24T07:37:02.265Z,6.13
2024-01-24T07:39:30.017Z,6.17
2024-01-24T07:41:57.622Z,6.25
2024-01-24T07:44:25.210Z,6.19
2024-01-24T07:46:52.228Z,6.33
2024-01-24T07:49:19.425Z,6.37
2024-01-24T07:51:48.474Z,6.38
2024-01-24T07:54:20.370Z,6.36
2024-01-24T07:56:48.137Z,6.51
2024-01-24T07:59:17.834Z,6.52
2024-01-24T08:01:49.695Z,6.54
2024-01-24T08:04:18.474Z,6.50
2024-01-24T08:06:50.767Z,6.42
2024-01-24T08:09:19.560Z,6.50
2024-01-24T08:11:46.692Z,6.49
2024-01-24T08:14:14.119Z,6.35
2024-01-24T08:16:56.478Z,7.88
2024-01-24T08:19:23.582Z,9.46
2024-01-24T08:21:50.639Z,10.33
2024-01-24T08:24:17.603Z,10.65
2024-01-24T08:26:46.299Z,11.39
2024-01-24T08:29:22.013Z,11.65
2024-01-24T08:31:53.177Z,11.68
2024-01-24T08:34:20.287Z,12.18
2024-01-24T08:36:47.443Z,12.23
2024-01-24T08:39:16.257Z,12.43
2024-01-24T08:41:43.266Z,12.85
2024-01-24T08:44:10.301Z,12.69
2024-01-24T08:46:37.249Z,13.01
2024-01-24T08:49:04.292Z,12.90
2024-01-24T08:51:33.201Z,13.03
2024-01-24T08:54:01.281Z,13.75
2024-01-24T08:56:28.327Z,13.90
2024-01-24T08:58:55.984Z,15.31
2024-01-24T09:01:23.448Z,15.21
2024-01-24T09:03:52.287Z,15.19
2024-01-24T09:06:21.756Z,15.91
2024-01-24T09:08:55.628Z,15.26
2024-01-24T09:11:27.318Z,14.37
2024-01-24T09:13:58.344Z,14.87
2024-01-24T09:16:25.746Z,14.95
2024-01-24T09:18:52.910Z,15.92
2024-01-24T09:21:20.241Z,15.53
2024-01-24T09:23:51.043Z,16.02
2024-01-24T09:26:18.261Z,17.39
2024-01-24T09:28:45.198Z,16.95
2024-01-24T09:31:12.088Z,17.18
2024-01-24T09:33:40.219Z,17.36
2024-01-24T09:36:07.698Z,17.72
2024-01-24T09:38:34.743Z,18.17
2024-01-24T09:41:10.470Z,18.45
2024-01-24T09:43:40.243Z,18.18
2024-01-24T09:46:13.745Z,18.55
2024-01-24T09:48:43.225Z,18.75
2024-01-24T09:51:10.551Z,19.00
2024-01-24T09:53:40.763Z,18.85
2024-01-24T09:56:08.992Z,19.80
2024-01-24T09:58:35.987Z,20.89
2024-01-24T10:01:05.956Z,21.08
2024-01-24T10:03:36.753Z,20.67
2024-01-24T10:06:10.003Z,20.78
2024-01-24T10:08:37.107Z,21.88
2024-01-24T10:11:04.193Z,22.47
2024-01-24T10:13:32.747Z,22.77
2024-01-24T10:16:01.246Z,23.17
2024-01-24T10:18:28.497Z,22.40
2024-01-24T10:20:56.112Z,23.37
2024-01-24T10:23:23.587Z,23.15
2024-01-24T10:25:51.082Z,22.62
2024-01-24T10:28:18.959Z,22.24
2024-01-24T10:30:50.320Z,22.87
2024-01-24T10:33:19.455Z,24.57
2024-01-24T10:35:47.203Z,24.81
2024-01-24T10:38:16.129Z,24.39
2024-01-24T10:40:43.390Z,24.96
2024-01-24T10:43:13.710Z,24.70
2024-01-24T10:45:46.206Z,23.48
2024-01-24T10:48:13.555Z,23.52
2024-01-24T10:50:41.845Z,24.29
2024-01-24T10:53:10.895Z,23.70
2024-01-24T10:55:39.451Z,23.59
2024-01-24T10:58:11.024Z,22.19
2024-01-24T11:00:41.033Z,23.13
2024-01-24T11:03:09.368Z,22.11
2024-01-24T11:05:46.743Z,23.17
2024-01-24T11:08:25.409Z,23.83
2024-01-24T11:11:04.623Z,25.28
2024-01-24T11:13:36.184Z,23.74
2024-01-24T11:16:30.240Z,23.27
2024-01-24T11:19:01.381Z,23.09
2024-01-24T11:21:32.175Z,23.30
2024-01-24T11:24:00.602Z,24.86
2024-01-24T11:26:27.476Z,25.71
2024-01-24T11:29:14.669Z,26.51
2024-01-24T11:31:43.989Z,27.00
2024-01-24T11:34:13.201Z,27.91
2024-01-24T11:36:52.798Z,24.32
2024-01-24T11:39:32.339Z,24.85
2024-01-24T11:42:27.534Z,25.81
2024-01-24T11:44:54.687Z,26.54
2024-01-24T11:47:25.345Z,26.61
2024-01-24T11:49:52.709Z,26.54
2024-01-24T11:52:23.052Z,26.81
2024-01-24T11:54:53.927Z,26.25
2024-01-24T11:57:21.151Z,26.37
2024-01-24T11:59:48.250Z,26.69
2024-01-24T12:02:15.962Z,25.85
2024-01-24T12:04:42.938Z,26.12
2024-01-24T12:07:10.820Z,23.78
2024-01-24T12:09:37.818Z,23.44
2024-01-24T12:12:05.178Z,23.22
2024-01-24T12:14:32.800Z,24.21
2024-01-24T12:17:00.267Z,25.63
2024-01-24T12:19:27.583Z,26.54
2024-01-24T12:21:54.879Z,25.99
2024-01-24T12:24:23.359Z,26.97
2024-01-24T12:26:52.278Z,28.03
2024-01-24T12:29:22.419Z,28.61
2024-01-24T12:31:50.220Z,29.10
2024-01-24T12:34:22.848Z,28.14
2024-01-24T12:36:50.205Z,28.12
2024-01-24T12:39:26.631Z,27.22
2024-01-24T12:41:53.723Z,25.84
2024-01-24T12:44:21.232Z,26.92
2024-01-24T12:46:57.240Z,27.38
2024-01-24T12:49:26.363Z,26.76
2024-01-24T12:51:54.960Z,27.64
2024-01-24T12:54:23.145Z,27.54
2024-01-24T12:56:51.239Z,28.04
2024-01-24T12:59:19.088Z,27.39
2024-01-24T13:01:46.315Z,27.27
2024-01-24T13:04:13.414Z,27.29
2024-01-24T13:06:41.759Z,26.70
2024-01-24T13:09:10.021Z,26.42
2024-01-24T13:11:37.059Z,25.85
2024-01-24T13:14:04.095Z,25.88
2024-01-24T13:16:31.140Z,26.61
2024-01-24T13:18:58.483Z,27.04
2024-01-24T13:21:26.109Z,27.36
2024-01-24T13:23:53.071Z,27.03
2024-01-24T13:26:20.272Z,26.60
2024-01-24T13:28:47.352Z,25.36
2024-01-24T13:31:14.404Z,25.90
2024-01-24T13:33:42.314Z,26.31
2024-01-24T13:36:10.816Z,26.44
2024-01-24T13:38:38.335Z,26.47
2024-01-24T13:41:05.449Z,24.94
2024-01-24T13:43:32.650Z,25.01
2024-01-24T13:45:59.608Z,25.24
2024-01-24T13:48:27.469Z,24.99
2024-01-24T13:50:56.425Z,24.14
2024-01-24T13:53:24.363Z,24.29
2024-01-24T13:55:51.353Z,24.11
2024-01-24T13:58:19.526Z,24.36
2024-01-24T14:00:46.619Z,24.97
2024-01-24T14:03:13.628Z,24.70
2024-01-24T14:05:42.809Z,24.23
2024-01-24T14:08:10.086Z,25.29
2024-01-24T14:10:37.212Z,24.88
2024-01-24T14:13:04.753Z,25.17
2024-01-24T14:15:34.982Z,25.43
2024-01-24T14:18:04.599Z,25.46
2024-01-24T14:20:31.855Z,25.14
2024-01-24T14:22:58.811Z,25.29
2024-01-24T14:25:25.793Z,25.52
2024-01-24T14:27:52.845Z,24.53
2024-01-24T14:30:19.990Z,23.87
2024-01-24T14:32:47.115Z,22.96
2024-01-24T14:35:20.077Z,21.38
2024-01-24T14:37:47.335Z,20.98
2024-01-24T14:40:17.160Z,20.61
2024-01-24T14:42:44.270Z,20.26
2024-01-24T14:45:11.523Z,20.05
2024-01-24T14:47:38.772Z,19.97
2024-01-24T14:50:08.893Z,19.84
2024-01-24T14:52:36.360Z,20.07
2024-01-24T14:55:04.284Z,19.96
2024-01-24T14:57:33.587Z,20.06
2024-01-24T15:00:01.506Z,20.02
2024-01-24T15:02:28.804Z,19.87
2024-01-24T15:04:56.012Z,19.70
2024-01-24T15:07:23.538Z,19.55
2024-01-24T15:09:50.968Z,19.60
2024-01-24T15:12:18.039Z,19.49
2024-01-24T15:14:44.910Z,19.45
2024-01-24T15:17:11.901Z,19.58
2024-01-24T15:19:47.191Z,19.44
2024-01-24T15:22:17.469Z,19.21
2024-01-24T15:24:45.316Z,19.04
2024-01-24T15:27:12.408Z,19.10
2024-01-24T15:29:40.347Z,19.23
2024-01-24T15:32:07.836Z,19.05
2024-01-24T15:34:35.502Z,18.80
2024-01-24T15:37:02.711Z,18.47
2024-01-24T15:39:29.991Z,18.32
2024-01-24T15:42:01.429Z,18.18
2024-01-24T15:44:29.045Z,18.11
2024-01-24T15:46:58.760Z,17.96
2024-01-24T15:49:25.790Z,17.83
2024-01-24T15:51:53.017Z,17.56
2024-01-24T15:54:20.130Z,17.80
2024-01-24T15:56:47.738Z,17.89
2024-01-24T15:59:14.861Z,17.74
2024-01-24T16:01:49.372Z,17.51
2024-01-24T16:04:20.549Z,17.53
2024-01-24T16:06:47.585Z,17.42
2024-01-24T16:09:15.022Z,17.38
2024-01-24T16:11:42.197Z,17.36
2024-01-24T16:14:09.427Z,17.28
2024-01-24T16:16:36.401Z,16.91
2024-01-24T16:19:03.559Z,16.69
2024-01-24T16:21:30.627Z,16.32
2024-01-24T16:23:57.583Z,16.03
2024-01-24T16:26:24.561Z,15.91
2024-01-24T16:28:51.510Z,15.78
2024-01-24T16:31:19.484Z,15.55
2024-01-24T16:33:46.564Z,15.17
2024-01-24T16:36:13.834Z,15.12
2024-01-24T16:38:41.045Z,14.96
2024-01-24T16:41:09.741Z,14.69
2024-01-24T16:43:39.005Z,14.79
2024-01-24T16:46:07.024Z,14.78
2024-01-24T16:48:34.342Z,14.67
2024-01-24T16:51:01.562Z,14.66
2024-01-24T16:53:29.000Z,14.40
2024-01-24T16:55:55.995Z,14.15
2024-01-24T16:58:22.894Z,14.08
2024-01-24T17:00:50.034Z,13.99
2024-01-24T17:03:17.124Z,13.95
2024-01-24T17:05:44.116Z,13.85
2024-01-24T17:08:11.286Z,13.77
2024-01-24T17:10:38.214Z,13.83
2024-01-24T17:13:05.308Z,13.61
2024-01-24T17:15:32.245Z,13.49
2024-01-24T17:18:02.971Z,13.50
2024-01-24T17:20:30.166Z,13.44
2024-01-24T17:22:58.150Z,13.34
2024-01-24T17:25:25.150Z,13.15
2024-01-24T17:27:52.165Z,13.37
2024-01-24T17:30:19.846Z,13.10
2024-01-24T17:32:46.870Z,12.79
2024-01-24T17:35:13.921Z,12.79
2024-01-24T17:37:40.897Z,12.77
2024-01-24T17:40:09.084Z,12.82
2024-01-24T17:42:36.415Z,12.88
2024-01-24T17:45:03.608Z,12.71
2024-01-24T17:47:31.587Z,12.75
2024-01-24T17:50:00.260Z,12.60
2024-01-24T17:52:27.406Z,12.52
2024-01-24T17:54:57.503Z,12.34
2024-01-24T17:57:24.505Z,12.37
2024-01-24T17:59:51.722Z,12.13
2024-01-24T18:02:18.711Z,11.87
2024-01-24T18:04:45.700Z,11.65
2024-01-24T18:07:12.883Z,11.59
2024-01-24T18:09:39.980Z,11.50
2024-01-24T18:12:07.478Z,11.68
2024-01-24T18:14:34.316Z,11.52
2024-01-24T18:17:01.252Z,11.56
2024-01-24T18:19:31.878Z,11.46
2024-01-24T18:21:59.482Z,11.65
2024-01-24T18:24:26.532Z,11.40
2024-01-24T18:26:54.258Z,11.35
2024-01-24T18:29:21.223Z,11.66
2024-01-24T18:31:48.839Z,11.65
2024-01-24T18:34:17.418Z,11.68
2024-01-24T18:36:44.553Z,11.81
2024-01-24T18:39:11.505Z,11.55
2024-01-24T18:41:38.729Z,11.49
2024-01-24T18:44:05.834Z,11.45
2024-01-24T18:46:33.635Z,11.39
2024-01-24T18:49:04.309Z,11.20
2024-01-24T18:51:31.660Z,11.14
2024-01-24T18:53:58.643Z,10.83
2024-01-24T18:56:25.863Z,10.92
2024-01-24T18:58:52.901Z,10.87
2024-01-24T19:01:20.567Z,10.66
2024-01-24T19:03:55.973Z,10.55
2024-01-24T19:06:24.049Z,10.69
2024-01-24T19:08:51.148Z,11.02
2024-01-24T19:11:18.389Z,10.40
2024-01-24T19:13:45.597Z,10.39
2024-01-24T19:16:12.890Z,10.81
2024-01-24T19:18:40.104Z,10.51
2024-01-24T19:21:07.111Z,10.12
2024-01-24T19:23:34.035Z,10.21
2024-01-24T19:26:01.074Z,10.51
2024-01-24T19:28:27.953Z,10.48
2024-01-24T19:30:55.076Z,10.47
2024-01-24T19:33:22.046Z,10.58
2024-01-24T19:35:48.939Z,10.61
2024-01-24T19:38:16.060Z,10.32
2024-01-24T19:40:43.033Z,10.27
2024-01-24T19:43:10.057Z,10.18
2024-01-24T19:45:37.575Z,10.33
2024-01-24T19:48:05.420Z,10.21
2024-01-24T19:50:32.522Z,10.18
2024-01-24T19:53:02.491Z,10.20
2024-01-24T19:55:29.584Z,10.35
2024-01-24T19:57:56.628Z,10.21
2024-01-24T20:00:24.436Z,9.99
2024-01-24T20:02:51.616Z,9.99
2024-01-24T20:05:19.021Z,10.13
2024-01-24T20:07:47.134Z,10.33
2024-01-24T20:10:14.393Z,10.26
2024-01-24T20:12:41.459Z,10.29
2024-01-24T20:15:09.092Z,10.25
2024-01-24T20:17:36.140Z,10.14
2024-01-24T20:20:03.805Z,10.18
2024-01-24T20:22:30.766Z,10.16
2024-01-24T20:24:57.661Z,10.10
2024-01-24T20:27:24.877Z,10.14
2024-01-24T20:29:53.195Z,9.98
2024-01-24T20:32:21.191Z,9.72
2024-01-24T20:34:49.751Z,9.80
2024-01-24T20:37:18.799Z,9.66
2024-01-24T20:39:45.932Z,9.68
2024-01-24T20:42:14.878Z,9.55
2024-01-24T20:44:44.536Z,9.67
2024-01-24T20:47:15.688Z,9.57
2024-01-24T20:49:44.063Z,9.33
2024-01-24T20:52:11.094Z,9.26
2024-01-24T20:54:38.134Z,9.18
2024-01-24T20:57:05.388Z,9.36
2024-01-24T20:59:32.668Z,9.46
2024-01-24T21:02:00.823Z,9.28
2024-01-24T21:04:28.327Z,9.23
2024-01-24T21:06:55.585Z,9.59
2024-01-24T21:09:22.638Z,9.33
2024-01-24T21:11:49.658Z,9.23
2024-01-24T21:14:16.724Z,9.17
2024-01-24T21:16:44.538Z,9.39
2024-01-24T21:19:17.570Z,9.18
2024-01-24T21:21:45.464Z,8.89
2024-01-24T21:24:14.012Z,8.87
2024-01-24T21:26:41.417Z,9.19
2024-01-24T21:29:08.690Z,9.21
2024-01-24T21:31:35.611Z,9.01
2024-01-24T21:34:02.910Z,9.13
2024-01-24T21:36:29.982Z,9.15
2024-01-24T21:38:56.924Z,9.07
2024-01-24T21:41:24.385Z,9.09
2024-01-24T21:43:51.514Z,8.88
2024-01-24T21:46:18.725Z,8.90
2024-01-24T21:48:45.793Z,8.76
2024-01-24T21:51:12.816Z,8.97
2024-01-24T21:53:39.683Z,9.16
2024-01-24T21:56:06.924Z,9.04
2024-01-24T21:58:36.233Z,8.71
2024-01-24T22:01:03.245Z,8.91
2024-01-24T22:03:30.267Z,8.89
2024-01-24T22:05:57.317Z,8.68
2024-01-24T22:08:24.356Z,8.62
2024-01-24T22:10:51.345Z,8.85
2024-01-24T22:13:18.354Z,8.82
2024-01-24T22:15:45.415Z,9.13
2024-01-24T22:18:13.862Z,8.97
2024-01-24T22:20:40.936Z,8.77
2024-01-24T22:23:08.735Z,8.65
2024-01-24T22:25:35.749Z,8.72
2024-01-24T22:28:02.692Z,8.83
2024-01-24T22:30:29.789Z,8.80
2024-01-24T22:32:56.845Z,8.99
2024-01-24T22:35:23.838Z,8.64
2024-01-24T22:37:50.826Z,8.90
2024-01-24T22:40:18.580Z,8.92
2024-01-24T22:42:45.784Z,8.83
2024-01-24T22:45:14.931Z,8.88
2024-01-24T22:47:41.912Z,8.51
2024-01-24T22:50:10.073Z,8.65
2024-01-24T22:52:37.150Z,8.89
2024-01-24T22:55:04.510Z,8.69
2024-01-24T22:57:31.485Z,8.92
2024-01-24T22:59:58.833Z,8.87
2024-01-24T23:02:26.732Z,8.88
2024-01-24T23:04:56.116Z,8.77
2024-01-24T23:07:23.293Z,8.63
2024-01-24T23:09:50.373Z,8.43
2024-01-24T23:12:18.075Z,8.34
2024-01-24T23:14:45.286Z,8.57
2024-01-24T23:17:12.257Z,8.64
2024-01-24T23:19:39.392Z,8.69
2024-01-24T23:22:06.513Z,8.68
2024-01-24T23:24:33.433Z,8.57
2024-01-24T23:27:00.452Z,8.57
2024-01-24T23:29:27.385Z,8.61
2024-01-24T23:31:54.250Z,8.58
2024-01-24T23:34:21.369Z,8.78
2024-01-24T23:36:48.455Z,8.61
2024-01-24T23:39:15.423Z,8.39
2024-01-24T23:41:42.597Z,8.39
2024-01-24T23:44:11.676Z,8.68
2024-01-24T23:46:38.868Z,7.84
2024-01-24T23:49:06.148Z,8.45
2024-01-24T23:51:36.226Z,8.53
2024-01-24T23:54:04.037Z,8.08
2024-01-24T23:56:30.961Z,7.94
2024-01-24T23:58:57.903Z,8.31
